Latest Weather Observations for Mornington Island Airport

IDQ60801

Issued at 3:52 am EST Friday 22 February 2019 (issued every 10 minutes, with the page automatically refreshed every 10 minutes)

About weather observations | Map of weather stations | Latest weather observations for QLD | Other Formats
Station Details ID: 029182 Name: MORNINGTON ISLAND AIRPORT Lat: -16.66 Lon: 139.17 Height: 9.52 m
Data from the previous 72 hours. | See also: Recent months at Mornington Island Airport
Date/Time
EST
Temp
°C
App
Temp
°C
Dew
Point
°C
Rel
Hum
%
Delta-T
°C
Wind Press
QNH
hPa
Press
MSL
hPa
Rain since
9am
mm
Dir  Spd
km/h
Gust
km/h
Spd
kts
Gust
kts
22/03:30am 29.6 36.1 27.6 89 1.4 W 9 11 5 6 1007.2 1007.1 0.0
22/03:00am 29.7 36.1 27.5 88 1.6 W 9 11 5 6 1007.2 1007.1 0.0
22/02:52am 29.7 36.1 27.5 88 1.6 W 9 11 5 6 1007.3 1007.2 0.0
22/02:30am 30.1 36.3 27.7 87 1.7 WNW 11 15 6 8 1007.3 1007.2 0.0
22/02:26am 30.1 36.3 27.7 87 1.7 WNW 11 15 6 8 1007.3 1007.2 0.0
22/02:09am 30.1 36.3 27.7 87 1.7 WNW 11 13 6 7 1007.3 1007.2 0.0
22/02:00am 30.2 36.4 27.8 87 1.7 WNW 11 15 6 8 1007.4 1007.3 0.0
22/01:32am 30.2 36.4 27.8 87 1.7 NW 11 15 6 8 1007.4 1007.3 0.0
22/01:30am 30.3 36.6 27.9 87 1.7 NW 11 15 6 8 1007.4 1007.3 0.0
22/01:00am 30.3 36.2 27.9 87 1.7 NW 13 17 7 9 1007.5 1007.4 0.0
22/12:30am 30.3 36.2 27.9 87 1.7 NNW 13 19 7 10 1007.7 1007.6 0.0
22/12:00am 30.1 36.7 27.7 87 1.7 NNW 9 13 5 7 1007.7 1007.6 0.0
 
Date/Time
EST
Temp
°C
App
Temp
°C
Dew
Point
°C
Rel
Hum
%
Delta-T
°C
Wind Press
QNH
hPa
Press
MSL
hPa
Rain since
9am
mm
Dir  Spd
km/h
Gust
km/h
Spd
kts
Gust
kts
21/11:30pm 30.1 36.5 27.5 86 1.9 NNW 9 11 5 6 1007.8 1007.7 0.0
21/11:00pm 30.0 36.9 27.6 87 1.7 N 7 9 4 5 1007.7 1007.6 0.0
21/10:30pm 30.2 37.3 27.6 86 1.9 N 6 9 3 5 1007.7 1007.6 0.0
21/10:00pm 30.6 37.5 27.6 84 2.2 N 7 11 4 6 1007.6 1007.5 0.0
21/09:30pm 30.7 36.7 27.5 83 2.3 NNW 11 15 6 8 1007.6 1007.5 0.0
21/09:00pm 30.8 36.5 27.6 83 2.3 NNW 13 17 7 9 1007.4 1007.3 0.0
21/08:30pm 30.9 37.3 27.5 82 2.5 N 9 13 5 7 1007.2 1007.1 0.0
21/08:00pm 31.0 37.1 27.6 82 2.5 NNW 11 15 6 8 1007.0 1006.9 0.0
21/07:30pm 31.1 36.3 27.4 81 2.7 NW 15 17 8 9 1006.6 1006.5 0.0
21/07:00pm 31.3 37.0 27.6 81 2.7 NW 13 17 7 9 1006.3 1006.2 0.0
21/06:30pm 31.3 36.5 27.4 80 2.8 NNW 15 19 8 10 1006.2 1006.1 0.0
21/06:00pm 31.7 36.3 27.6 79 3.0 NNW 19 22 10 12 1005.9 1005.8 0.0
21/05:30pm 32.8 37.5 27.8 75 3.7 NNW 19 24 10 13 1005.7 1005.6 0.0
21/05:00pm 32.8 36.4 27.5 73 3.9 NNW 24 28 13 15 1005.5 1005.4 0.0
21/04:30pm 33.2 37.1 27.5 72 4.2 NNW 22 30 12 16 1005.8 1005.7 0.0
21/04:00pm 33.2 37.3 27.7 73 4.0 NNW 22 28 12 15 1006.0 1005.9 0.0
21/03:30pm 33.2 37.1 27.5 72 4.2 NNW 22 28 12 15 1006.4 1006.3 0.0
21/03:00pm 33.5 37.4 28.0 73 4.0 NW 24 30 13 16 1006.8 1006.7 0.0
21/02:30pm 33.5 37.8 27.5 71 4.4 NW 20 28 11 15 1007.4 1007.3 0.0
21/02:00pm 33.2 37.7 27.7 73 4.0 NNW 20 28 11 15 1007.7 1007.6 0.0
21/01:30pm 33.0 37.7 27.7 73 3.9 NW 19 24 10 13 1008.3 1008.2 0.0
21/01:00pm 32.9 37.3 27.4 73 4.0 NW 19 24 10 13 1009.0 1008.9 0.0
21/12:30pm 33.5 38.0 27.5 71 4.4 NW 19 24 10 13 1009.5 1009.4 0.0
21/12:00pm 33.2 37.9 27.7 73 4.0 WNW 19 22 10 12 1009.9 1009.8 0.0
21/11:30am 32.9 37.3 27.6 73 3.9 WNW 20 24 11 13 1010.3 1010.2 0.0
21/11:00am 32.7 36.8 27.2 73 4.0 WNW 20 24 11 13 1010.5 1010.4 0.0
21/10:30am 32.3 36.5 27.3 75 3.6 NW 20 24 11 13 1010.7 1010.6 0.0
21/10:00am 32.1 36.3 27.1 75 3.6 NW 19 24 10 13 1010.6 1010.5 0.0
21/09:30am 32.1 37.1 27.1 75 3.6 WNW 15 19 8 10 1010.6 1010.5 0.0
21/09:00am 31.6 36.1 26.4 74 3.7 WNW 15 17 8 9 1010.6 1010.5 0.0
21/08:30am 31.6 36.4 26.8 75 3.5 WNW 15 17 8 9 1010.7 1010.6 0.0
21/08:00am 30.8 35.1 26.7 79 2.9 WNW 17 24 9 13 1010.6 1010.5 0.0
21/07:30am 30.4 34.6 27.0 82 2.4 WNW 19 22 10 12 1010.3 1010.2 0.0
21/07:00am 30.0 34.5 27.0 84 2.2 WNW 17 20 9 11 1009.5 1009.4 0.0
21/06:30am 30.0 34.0 26.8 83 2.3 NW 19 24 10 13 1009.2 1009.1 0.0
21/06:00am 29.9 33.9 26.7 83 2.3 NW 19 24 10 13 1008.6 1008.5 0.0
21/05:30am 30.0 33.8 26.8 83 2.3 NW 20 26 11 14 1008.4 1008.3 0.0
21/05:00am 30.0 33.1 26.8 83 2.3 NW 24 28 13 15 1008.0 1007.9 0.0
21/04:57am 29.9 33.1 26.5 82 2.4 NW 22 28 12 15 1007.9 1007.8 0.0
21/04:30am 30.0 33.2 27.0 84 2.2 NW 24 30 13 16 1007.8 1007.7 0.0
21/04:00am 29.9 33.3 27.3 86 1.9 NW 24 30 13 16 1007.6 1007.5 0.0
21/03:51am 29.9 33.7 27.3 86 1.9 NW 22 28 12 15 1007.6 1007.5 0.0
21/03:30am 29.8 33.5 27.2 86 1.9 NNW 22 28 12 15 1007.4 1007.3 0.0
21/03:00am 29.7 33.7 27.1 86 1.9 NNW 20 28 11 15 1007.5 1007.4 0.0
21/02:30am 29.7 33.7 27.1 86 1.9 NNW 20 26 11 14 1007.7 1007.6 0.0
21/02:00am 29.8 33.4 27.0 85 2.0 NNW 22 28 12 15 1007.8 1007.7 0.0
21/01:30am 29.8 33.8 27.0 85 2.0 NNW 20 28 11 15 1007.9 1007.8 0.0
21/01:00am 29.9 34.8 27.5 87 1.7 NNW 17 24 9 13 1008.2 1008.1 0.0
21/12:30am 29.9 34.1 27.1 85 2.0 N 19 26 10 14 1008.3 1008.2 0.0
21/12:00am 30.0 34.7 27.2 85 2.0 N 17 22 9 12 1008.7 1008.6 0.0
 
Date/Time
EST
Temp
°C
App
Temp
°C
Dew
Point
°C
Rel
Hum
%
Delta-T
°C
Wind Press
QNH
hPa
Press
MSL
hPa
Rain since
9am
mm
Dir  Spd
km/h
Gust
km/h
Spd
kts
Gust
kts
20/11:30pm 30.1 34.8 27.3 85 2.0 N 17 22 9 12 1008.7 1008.6 0.0
20/11:00pm 30.1 34.6 26.9 83 2.3 N 17 24 9 13 1008.8 1008.7 0.0
20/10:30pm 30.2 35.3 27.2 84 2.2 N 15 22 8 12 1008.9 1008.8 0.0
20/10:00pm 30.3 35.2 26.9 82 2.4 N 15 19 8 10 1008.8 1008.7 0.0
20/09:30pm 30.4 34.9 27.0 82 2.4 N 17 22 9 12 1008.6 1008.5 0.0
20/09:00pm 30.6 34.8 27.0 81 2.6 N 19 24 10 13 1008.1 1008.0 0.0
20/08:30pm 30.6 34.6 26.7 80 2.8 N 19 26 10 14 1007.7 1007.6 0.0
20/08:00pm 30.7 35.1 26.8 80 2.8 N 17 24 9 13 1007.4 1007.3 0.0
20/07:30pm 30.9 35.2 26.6 78 3.1 NNW 17 24 9 13 1007.3 1007.2 0.0
20/07:00pm 31.2 35.0 26.5 76 3.4 NNW 19 26 10 14 1007.3 1007.2 0.0
20/06:30pm 31.8 34.8 26.1 72 4.1 NNW 22 30 12 16 1007.0 1006.9 0.0
20/06:00pm 32.5 36.0 26.3 70 4.5 NNW 20 26 11 14 1007.0 1006.9 0.0
20/05:30pm 32.7 36.0 26.0 68 4.8 NNW 20 26 11 14 1006.9 1006.8 0.0
20/05:00pm 32.9 35.8 25.9 66 5.0 NNW 22 28 12 15 1007.1 1007.0 0.0
20/04:30pm 33.2 36.5 26.0 66 5.2 NNW 20 26 11 14 1007.1 1007.0 0.0
20/04:00pm 33.2 36.8 26.5 68 4.8 NNW 20 26 11 14 1007.4 1007.3 0.0
20/03:30pm 33.1 37.1 27.1 71 4.3 NNW 20 26 11 14 1007.5 1007.4 0.0
20/03:00pm 33.4 37.5 27.2 70 4.5 NW 20 24 11 13 1008.0 1007.9 0.0
20/02:30pm 32.9 36.6 27.2 72 4.1 NW 22 26 12 14 1008.3 1008.2 0.0
20/02:00pm 33.1 37.0 26.9 70 4.5 NW 20 26 11 14 1008.8 1008.7 0.0
20/01:30pm 33.0 37.2 27.0 70 4.3 WNW 19 24 10 13 1009.6 1009.5 0.0
20/01:00pm 33.0 36.5 26.8 70 4.5 WNW 22 26 12 14 1009.8 1009.7 0.0
20/12:30pm 32.9 37.2 27.2 72 4.1 WNW 19 24 10 13 1010.5 1010.4 0.0
20/12:00pm 32.7 37.1 27.4 73 3.9 WNW 19 24 10 13 1010.9 1010.8 0.0
20/11:30am 32.9 37.7 27.9 75 3.7 W 19 24 10 13 1011.2 1011.1 0.0
20/11:00am 33.0 36.4 27.3 72 4.1 WNW 24 30 13 16 1011.5 1011.4 0.0
20/10:30am 32.8 36.4 27.5 73 3.9 NW 24 28 13 15 1011.4 1011.3 0.0
20/10:00am 32.3 35.1 27.5 76 3.5 NW 28 35 15 19 1011.0 1010.9 0.0
20/09:30am 31.2 34.6 26.7 77 3.2 NW 22 28 12 15 1011.6 1011.5 0.0
20/09:00am 31.5 34.3 27.0 77 3.2 NW 26 33 14 18 1011.4 1011.3 0.0
20/08:30am 31.5 33.6 27.0 77 3.2 NW 30 41 16 22 1010.8 1010.7 0.0
20/08:00am 31.2 33.7 27.1 79 3.0 NW 28 35 15 19 1010.7 1010.6 0.0
20/07:30am 30.5 33.4 27.1 82 2.5 WNW 26 33 14 18 1010.9 1010.8 0.0
20/07:00am 30.2 32.4 26.6 81 2.6 NW 28 35 15 19 1010.2 1010.1 0.0
20/06:30am 30.1 32.1 26.9 83 2.3 NW 30 37 16 20 1009.7 1009.6 0.0
20/06:00am 29.9 32.5 26.7 83 2.3 NW 26 33 14 18 1009.3 1009.2 0.0
20/05:30am 30.1 33.0 27.1 84 2.2 NW 26 33 14 18 1009.0 1008.9 0.0
20/05:00am 29.9 32.7 26.9 84 2.2 NW 26 33 14 18 1008.8 1008.7 0.0
20/04:30am 29.9 32.3 26.9 84 2.2 NNW 28 35 15 19 1008.6 1008.5 0.0
20/04:11am 29.9 32.7 26.9 84 2.2 NW 26 32 14 17 1008.5 1008.4 0.0
20/04:00am 29.8 32.7 26.6 83 2.3 NNW 24 33 13 18 1008.5 1008.4 0.0
20/03:30am 29.8 33.0 27.0 85 2.0 NNW 24 32 13 17 1008.5 1008.4 0.0
20/03:00am 29.8 33.3 26.8 84 2.2 NNW 22 30 12 16 1008.7 1008.6 0.0
20/02:30am 29.8 33.4 27.0 85 2.0 NNW 22 32 12 17 1008.9 1008.8 0.0
20/02:15am 29.6 33.8 27.0 86 1.9 NNW 19 22 10 12 1008.9 1008.8 0.0
20/02:00am 29.7 33.2 26.9 85 2.0 NNW 22 30 12 16 1009.0 1008.9 0.0
20/01:30am 29.7 33.6 26.9 85 2.0 NNW 20 32 11 17 1009.3 1009.2 0.0
20/01:00am 29.8 33.8 27.0 85 2.0 NNW 20 26 11 14 1009.6 1009.5 0.0
20/12:30am 29.9 33.7 26.7 83 2.3 NNW 20 28 11 15 1009.7 1009.6 0.0
20/12:18am 29.9 33.8 26.9 84 2.2 NNW 20 28 11 15 1009.8 1009.7 0.0
20/12:02am 29.9 33.8 26.9 84 2.2 NNW 20 30 11 16 1009.9 1009.8 0.0
20/12:00am 29.9 33.8 26.9 84 2.2 NNW 20 30 11 16 1009.9 1009.8 0.0
 
Date/Time
EST
Temp
°C
App
Temp
°C
Dew
Point
°C
Rel
Hum
%
Delta-T
°C
Wind Press
QNH
hPa
Press
MSL
hPa
Rain since
9am
mm
Dir  Spd
km/h
Gust
km/h
Spd
kts
Gust
kts
19/11:30pm 29.8 33.8 26.8 84 2.2 NNW 19 26 10 14 1009.9 1009.8 0.0
19/11:00pm 29.9 33.8 26.9 84 2.2 NNW 20 28 11 15 1010.0 1009.9 0.0
19/10:30pm 30.0 34.0 26.8 83 2.3 NNW 19 26 10 14 1009.5 1009.4 0.0
19/10:00pm 29.9 34.6 26.7 83 2.3 N 15 20 8 11 1009.0 1008.9 0.0
19/09:30pm 30.0 33.9 26.6 82 2.4 NNW 19 26 10 14 1008.7 1008.6 0.0
19/09:00pm 30.3 34.1 26.7 81 2.6 NNW 20 26 11 14 1008.6 1008.5 0.0
19/08:30pm 30.4 33.7 26.6 80 2.7 NNW 22 28 12 15 1008.4 1008.3 0.0
19/08:00pm 30.6 33.3 26.3 78 3.1 NNW 24 32 13 17 1008.2 1008.1 0.0
19/07:30pm 30.6 33.3 26.3 78 3.1 NNW 24 32 13 17 1008.0 1007.9 0.0
19/07:00pm 30.8 33.9 26.3 77 3.2 NNW 22 30 12 16 1007.9 1007.8 0.0
19/06:30pm 31.5 33.9 25.8 72 4.1 NNW 24 32 13 17 1007.6 1007.5 0.0
19/06:00pm 31.9 33.7 25.5 69 4.5 NNW 26 33 14 18 1007.3 1007.2 0.0
19/05:30pm 32.6 34.7 25.4 66 5.1 NNW 24 30 13 16 1007.2 1007.1 0.0
19/05:00pm 32.9 35.4 25.4 64 5.3 NNW 22 33 12 18 1007.1 1007.0 0.0
19/04:30pm 32.7 34.3 24.5 62 5.8 NNW 24 32 13 17 1006.9 1006.8 0.0
19/04:00pm 33.1 34.9 24.8 61 5.9 NW 24 30 13 16 1007.2 1007.1 0.0
19/03:30pm 33.4 36.1 26.2 66 5.2 NNW 24 30 13 16 1007.7 1007.6 0.0
19/03:00pm 33.5 36.2 26.3 66 5.2 NW 24 30 13 16 1008.1 1008.0 0.0
19/02:30pm 32.9 34.9 25.7 66 5.1 NW 26 32 14 17 1008.6 1008.5 0.0
19/02:00pm 33.5 36.2 26.3 66 5.2 NW 24 32 13 17 1009.0 1008.9 0.0
19/01:30pm 33.9 37.0 26.9 67 5.1 NW 24 32 13 17 1009.5 1009.4 0.0
19/01:00pm 33.1 35.4 25.6 64 5.3 NW 24 30 13 16 1010.1 1010.0 0.0
19/12:30pm 32.7 34.7 25.8 67 4.9 NW 26 32 14 17 1010.6 1010.5 0.0
19/12:00pm 32.2 34.9 26.3 71 4.2 NW 24 30 13 16 1011.0 1010.9 0.0
19/11:30am 33.5 36.2 26.3 66 5.2 NW 24 33 13 18 1011.1 1011.0 0.0
19/11:00am 32.8 35.0 26.1 68 4.8 NW 26 32 14 17 1011.2 1011.1 0.0
19/10:30am 32.3 34.5 26.1 70 4.4 NW 26 32 14 17 1011.3 1011.2 0.0
19/10:00am 32.1 34.8 26.2 71 4.2 NW 24 32 13 17 1011.4 1011.3 0.0
19/09:30am 31.9 34.6 26.2 72 4.1 NW 24 32 13 17 1011.3 1011.2 0.0
19/09:00am 31.4 34.1 26.2 74 3.7 NW 24 30 13 16 1011.0 1010.9 0.0
19/08:30am 31.1 34.0 25.9 74 3.7 NW 22 30 12 16 1010.8 1010.7 0.0
19/08:00am 30.7 33.2 26.0 76 3.4 NW 24 30 13 16 1010.4 1010.3 0.0
19/07:30am 30.1 33.1 26.1 79 2.8 NW 22 30 12 16 1010.0 1009.9 0.0
19/07:00am 29.6 32.0 25.8 80 2.7 NW 24 28 13 15 1009.7 1009.6 0.0
19/06:30am 29.6 31.9 25.6 79 2.8 NW 24 30 13 16 1009.4 1009.3 0.0
19/06:00am 29.4 31.8 25.2 78 3.0 NNW 22 26 12 14 1009.2 1009.1 0.0
19/05:30am 29.6 32.1 25.4 78 3.0 NNW 22 30 12 16 1009.2 1009.1 0.0
19/05:00am 29.6 32.1 25.4 78 3.0 NNW 22 28 12 15 1009.1 1009.0 0.0
19/04:30am 29.5 32.0 25.3 78 3.0 NNW 22 28 12 15 1008.9 1008.8 0.0
19/04:00am 29.5 32.2 25.0 77 3.2 NNW 20 30 11 16 1008.9 1008.8 0.0

Other formats

Comma delimited format used in spreadsheet applications
http://www.bom.gov.au/fwo/IDQ60801/IDQ60801.94254.axf

JavaScript Object Notation format (JSON) in row-major order
http://www.bom.gov.au/fwo/IDQ60801/IDQ60801.94254.json

Data quality

Most of these data are generated automatically and are frequently updated. Quality checks on data are not normally performed. It is possible for incorrect values to appear. Refer to information at About Latest Weather Observations and please check the disclaimer before using these data.